Metar Flugplatz Niederstetten

ETHN 180020Z 27012KT 0300 FZFG VV000 M00/M00 Q1021 RED



Temperatur Niederstetten
0 Grad Celsius

QNH Niederstetten
1021
==============================================================

TAF Niederstetten:

TAF ETHN 291027Z 2911/3002 24010KT 9999 NSW FEW240 TEMPO 2911/2916 26012G22KT 9999 NSW SCT035 BKN240



Alle Angaben ohne Gewähr